Portada
METAR-TAF:

METAR-TAF

Aeroports :

Sibu, Malàisia

latitud: 02-20N, longitud: 111-50E, altitud: 8 m

Observació

L'informe es va fer fa 57 minuts, a les 03:00 UTC
Vent 1 kt amb direcció variable
Temperatura 29°C
Humitat 74%
Pressió 1011 hPa
Visibilitat 10 km o més
Núvols disperses a una alçada de 1600 ft
Cel ennuvolat a una alçada de 15000 ft

METAR: WBGS 210300Z VRB01KT 9999 SCT016 BKN150 29/24 Q1011

Hora: 11:57 (03:57 UTC)

Pronòstic

L'informe es va fer fa 4 hores i 57 minuts, a les 23:00 UTC
Pronòstic vàlid del 21 a les 00 UTC al 22 a les 00 UTC
Vent 3 kt amb direcció variable
Visibilitat 10 km o més
Núvols disperses a una alçada de 1600 ft
Temporalment
l' 21 a les 06 UTC al 21 a les 10 UTC
Visibilitat: 4000 m
Escasses núvols a una alçada de 1500 ft, Cumulonimbus.
tempesta, pluja

TAF: WBGS 202300Z 2100/2200 VRB03KT 9999 SCT016 TEMPO 2106/2110 4000 TSRA FEW015CB

Observacions i pronòstics meteorològics de més de 4000 aeroports (METAR i TAF).

Les estacions disponibles són els punts grocs i vermells al mapa.

Posi el ratolí al punt desitjat per veure el nom de l'estació.

Feu clic per veure les observacions i els pronòstics meteorològics.

Per canviar el mapa: feu clic els botons verds amb una creu de color negre per apropar; al botó verd amb un guió per allunyar la imatge; o en les fletxes verdes per a mapes adjacents.


METAR-TAF: